createdAt,value
2022-11-22T00:02:49.612Z,28.1
2022-11-22T00:13:48.919Z,27.8
2022-11-22T00:19:13.041Z,27.6
2022-11-22T00:24:41.491Z,27.4
2022-11-22T00:29:47.956Z,27.3
2022-11-22T00:35:25.820Z,27.1
2022-11-22T00:40:48.240Z,27
2022-11-22T00:46:24.858Z,26.8
2022-11-22T00:52:03.380Z,26.8
2022-11-22T00:57:40.638Z,26.5
2022-11-22T01:03:23.130Z,26.5
2022-11-22T01:09:01.515Z,26.2
2022-11-22T01:14:38.811Z,26.2
2022-11-22T01:20:16.092Z,26
2022-11-22T01:25:38.691Z,25.9
2022-11-22T01:31:15.794Z,25.8
2022-11-22T01:36:37.430Z,26.4
2022-11-22T01:42:15.530Z,26.5
2022-11-22T01:47:53.473Z,26.3
2022-11-22T01:53:30.494Z,26
2022-11-22T01:59:08.547Z,25.8
2022-11-22T02:04:46.347Z,25.6
2022-11-22T02:10:10.235Z,25.5
2022-11-22T02:15:49.292Z,25.4
2022-11-22T02:21:10.561Z,25.3
2022-11-22T02:26:47.991Z,25.2
2022-11-22T02:32:26.112Z,25.1
2022-11-22T02:38:03.517Z,25
2022-11-22T02:43:41.397Z,24.9
2022-11-22T02:49:19.640Z,24.8
2022-11-22T02:54:40.949Z,25.1
2022-11-22T03:00:19.060Z,25.4
2022-11-22T03:06:01.358Z,25.6
2022-11-22T03:11:42.749Z,25.3
2022-11-22T03:17:03.556Z,25
2022-11-22T03:22:28.044Z,24.9
2022-11-22T03:27:49.389Z,24.7
2022-11-22T03:33:27.177Z,24.6
2022-11-22T03:38:49.820Z,24.5
2022-11-22T03:44:34.265Z,24.5
2022-11-22T03:49:55.900Z,24.4
2022-11-22T03:55:33.985Z,24.6
2022-11-22T04:01:16.494Z,24.8
2022-11-22T04:06:38.980Z,25.2
2022-11-22T04:11:46.712Z,25
2022-11-22T04:17:24.653Z,24.8
2022-11-22T04:22:45.796Z,24.5
2022-11-22T04:28:35.162Z,24.4
2022-11-22T04:34:35.252Z,24.3
2022-11-22T04:39:56.918Z,24.2
2022-11-22T04:45:19.446Z,24.2
2022-11-22T04:50:26.433Z,24.1
2022-11-22T04:55:49.061Z,24.1
2022-11-22T05:01:17.455Z,24.3
2022-11-22T05:06:59.355Z,24.8
2022-11-22T05:12:40.102Z,24.9
2022-11-22T05:17:16.601Z,24.6
2022-11-22T05:22:54.070Z,24.4
2022-11-22T05:28:00.632Z,24.1
2022-11-22T05:33:28.053Z,24.1
2022-11-22T05:39:06.076Z,23.9
2022-11-22T05:44:44.320Z,23.9
2022-11-22T05:50:23.607Z,23.9
2022-11-22T05:56:05.797Z,23.8
2022-11-22T06:01:29.038Z,23.9
2022-11-22T06:06:36.548Z,24.1
2022-11-22T06:12:00.334Z,24.6
2022-11-22T06:17:45.304Z,24.5
2022-11-22T06:23:26.820Z,24.2
2022-11-22T06:28:53.181Z,23.9
2022-11-22T06:34:33.831Z,23.9
2022-11-22T06:40:13.574Z,23.7
2022-11-22T06:45:50.415Z,23.7
2022-11-22T06:51:29.199Z,23.6
2022-11-22T06:58:01.706Z,23.8
2022-11-22T07:03:45.821Z,24.2
2022-11-22T07:10:02.760Z,24.4
2022-11-22T07:15:47.614Z,24.1
2022-11-22T07:21:13.068Z,23.9
2022-11-22T07:26:51.479Z,23.8
2022-11-22T07:32:29.851Z,23.6
2022-11-22T07:37:58.916Z,23.6
2022-11-22T07:43:21.735Z,23.4
2022-11-22T07:48:46.728Z,23.6
2022-11-22T07:54:09.486Z,23.9
2022-11-22T07:59:48.501Z,24.3
2022-11-22T08:05:31.073Z,24.3
2022-11-22T08:11:15.054Z,23.9
2022-11-22T08:16:56.730Z,23.7
2022-11-22T08:22:35.900Z,23.6
2022-11-22T08:28:14.457Z,23.3
2022-11-22T08:33:52.792Z,23.3
2022-11-22T08:39:35.694Z,23.2
2022-11-22T08:45:14.251Z,23.1
2022-11-22T08:50:53.562Z,23.1
2022-11-22T08:56:34.291Z,23
2022-11-22T09:02:14.194Z,23.1
2022-11-22T09:10:18.004Z,23.3
2022-11-22T09:15:56.965Z,23.8
2022-11-22T09:21:34.895Z,23.6
2022-11-22T09:27:16.931Z,23.4
2022-11-22T09:32:56.042Z,23.3
2022-11-22T09:38:33.968Z,23.1
2022-11-22T09:44:19.065Z,23
2022-11-22T09:50:03.867Z,22.9
2022-11-22T09:55:42.605Z,22.9
2022-11-22T10:01:26.676Z,23.1
2022-11-22T10:07:32.437Z,23.6
2022-11-22T10:13:15.338Z,23.6
2022-11-22T10:18:53.601Z,23.4
2022-11-22T10:24:32.511Z,23.2
2022-11-22T10:30:13.988Z,23.1
2022-11-22T10:35:57.465Z,23
2022-11-22T10:41:36.668Z,22.9
2022-11-22T10:47:14.826Z,22.9
2022-11-22T10:52:56.762Z,23.2
2022-11-22T10:58:35.490Z,23.7
2022-11-22T11:04:02.075Z,23.4
2022-11-22T11:12:07.018Z,23.1
2022-11-22T11:17:52.172Z,22.8
2022-11-22T11:24:06.810Z,22.7
2022-11-22T11:29:49.898Z,22.6
2022-11-22T11:35:28.291Z,22.7
2022-11-22T11:41:08.411Z,22.9
2022-11-22T11:46:47.917Z,23.4
2022-11-22T11:52:26.276Z,23.3
2022-11-22T11:57:48.887Z,23.1
2022-11-22T12:03:36.217Z,22.9
2022-11-22T12:09:00.148Z,22.9
2022-11-22T12:15:43.117Z,22.9
2022-11-22T12:21:22.563Z,22.8
2022-11-22T12:51:52.111Z,22.8
2022-11-22T12:57:39.619Z,22.9
2022-11-22T13:03:17.995Z,22.9
2022-11-22T13:09:02.067Z,22.8
2022-11-22T13:14:42.508Z,22.7
2022-11-22T13:20:21.185Z,22.7
2022-11-22T13:26:09.171Z,23.1
2022-11-22T13:31:57.191Z,23.4
2022-11-22T13:37:35.983Z,23.2
2022-11-22T13:43:21.367Z,23.1
2022-11-22T13:49:00.616Z,22.9
2022-11-22T13:54:27.145Z,22.9
2022-11-22T13:59:59.018Z,22.8
2022-11-22T14:05:41.867Z,22.6
2022-11-22T14:11:20.175Z,22.6
2022-11-22T14:17:03.888Z,22.8
2022-11-22T14:22:46.396Z,23.3
2022-11-22T14:28:24.013Z,23.1
2022-11-22T14:33:53.494Z,22.9
2022-11-22T14:39:36.625Z,22.9
2022-11-22T14:45:17.424Z,22.8
2022-11-22T14:51:32.027Z,22.6
2022-11-22T14:57:16.305Z,22.6
2022-11-22T15:02:38.447Z,22.4
2022-11-22T15:13:35.659Z,23
2022-11-22T16:01:52.604Z,22.6
2022-11-22T16:08:30.958Z,23.2
2022-11-22T16:14:10.130Z,23.1
2022-11-22T16:19:40.042Z,22.9
2022-11-22T16:25:06.171Z,22.8
2022-11-22T16:30:47.187Z,22.7
2022-11-22T16:36:52.455Z,22.6
2022-11-22T16:42:20.416Z,22.6
2022-11-22T16:47:58.437Z,22.4
2022-11-22T16:53:25.940Z,22.6
2022-11-22T16:59:07.998Z,22.9
2022-11-22T17:04:53.130Z,23.3
2022-11-22T17:10:31.900Z,23
2022-11-22T17:16:11.071Z,22.9
2022-11-22T17:22:11.052Z,22.8
2022-11-22T17:27:54.060Z,22.7
2022-11-22T17:34:04.153Z,22.6
2022-11-22T17:39:41.142Z,22.6
2022-11-22T17:45:28.031Z,22.6
2022-11-22T17:51:12.381Z,23.2
2022-11-22T17:57:21.746Z,23.2
2022-11-22T18:02:46.330Z,22.9
2022-11-22T18:08:15.791Z,22.8
2022-11-22T18:14:13.075Z,22.8
2022-11-22T18:20:22.753Z,22.6
2022-11-22T18:26:31.818Z,22.6
2022-11-22T18:33:04.888Z,22.6
2022-11-22T18:38:55.707Z,22.8
2022-11-22T18:44:25.151Z,23.4
2022-11-22T18:50:04.340Z,23.2
2022-11-22T18:55:32.005Z,23
2022-11-22T19:01:12.197Z,22.9
2022-11-22T19:06:51.058Z,22.8
2022-11-22T19:12:32.669Z,22.8
2022-11-22T19:17:42.097Z,22.7
2022-11-22T19:23:25.869Z,22.7
2022-11-22T19:29:07.218Z,22.9
2022-11-22T19:34:32.378Z,23.4
2022-11-22T19:39:41.124Z,23.3
2022-11-22T19:45:12.610Z,23.1
2022-11-22T19:51:00.240Z,22.9
2022-11-22T19:56:24.216Z,22.8
2022-11-22T20:02:11.447Z,22.8
2022-11-22T20:07:41.914Z,22.7
2022-11-22T20:13:26.926Z,22.7
2022-11-22T20:19:07.646Z,22.8
2022-11-22T20:24:33.136Z,23.2
2022-11-22T20:30:12.677Z,23.3
2022-11-22T20:35:22.546Z,23.1
2022-11-22T20:41:06.583Z,22.9
2022-11-22T20:47:13.653Z,22.8
2022-11-22T20:52:53.515Z,22.7
2022-11-22T20:58:38.850Z,22.6
2022-11-22T21:04:22.000Z,22.6
2022-11-22T21:10:02.594Z,22.8
2022-11-22T21:15:27.906Z,23.3
2022-11-22T21:21:48.578Z,23.3
2022-11-22T21:27:15.949Z,23.1
2022-11-22T21:32:39.130Z,22.9
2022-11-22T21:38:01.238Z,22.9
2022-11-22T21:44:24.422Z,22.8
2022-11-22T21:50:06.052Z,22.7
2022-11-22T21:55:47.065Z,22.6
2022-11-22T22:01:17.239Z,22.8
2022-11-22T22:07:01.319Z,23.3
2022-11-22T22:13:06.548Z,23.7
2022-11-22T22:18:45.561Z,23.4
2022-11-22T22:24:28.908Z,23.2
2022-11-22T22:30:07.205Z,23.1
2022-11-22T22:35:48.147Z,23
2022-11-22T22:41:10.822Z,22.9
2022-11-22T22:46:39.866Z,23.4
2022-11-22T22:52:23.488Z,23.8
2022-11-22T22:58:01.556Z,23.5
2022-11-22T23:03:43.687Z,23.4
2022-11-22T23:08:52.247Z,23.3
2022-11-22T23:14:14.893Z,23.2
2022-11-22T23:20:16.787Z,23.1
2022-11-22T23:25:46.139Z,23.5
2022-11-22T23:31:24.898Z,23.9
2022-11-22T23:36:46.713Z,23.7
2022-11-22T23:42:25.576Z,23.5
2022-11-22T23:48:04.089Z,23.4
2022-11-22T23:53:40.856Z,23.3
2022-11-22T23:59:24.844Z,23.1
